createdAt,value
2022-09-29T00:01:09.122Z,100.00
2022-09-29T00:03:37.526Z,100.00
2022-09-29T00:06:15.257Z,100.00
2022-09-29T00:08:42.986Z,100.00
2022-09-29T00:11:13.219Z,100.00
2022-09-29T00:13:40.795Z,100.00
2022-09-29T00:16:08.453Z,100.00
2022-09-29T00:18:36.103Z,100.00
2022-09-29T00:21:04.720Z,100.00
2022-09-29T00:23:34.067Z,100.00
2022-09-29T00:26:13.681Z,100.00
2022-09-29T00:28:47.144Z,100.00
2022-09-29T00:31:16.093Z,100.00
2022-09-29T00:33:43.611Z,100.00
2022-09-29T00:36:15.068Z,100.00
2022-09-29T00:38:43.016Z,100.00
2022-09-29T00:41:20.820Z,100.00
2022-09-29T00:44:04.649Z,100.00
2022-09-29T00:47:02.820Z,100.00
2022-09-29T00:49:45.366Z,100.00
2022-09-29T00:52:37.621Z,100.00
2022-09-29T00:55:09.594Z,100.00
2022-09-29T00:57:56.394Z,100.00
2022-09-29T01:00:24.253Z,100.00
2022-09-29T01:03:20.013Z,100.00
2022-09-29T01:05:55.603Z,100.00
2022-09-29T01:08:45.177Z,100.00
2022-09-29T01:11:13.677Z,100.00
2022-09-29T01:13:41.527Z,100.00
2022-09-29T01:16:09.110Z,100.00
2022-09-29T01:18:37.393Z,100.00
2022-09-29T01:21:19.736Z,100.00
2022-09-29T01:24:49.244Z,100.00
2022-09-29T01:27:26.579Z,100.00
2022-09-29T01:30:21.094Z,100.00
2022-09-29T01:33:45.380Z,100.00
2022-09-29T01:36:42.787Z,100.00
2022-09-29T01:39:35.278Z,100.00
2022-09-29T01:42:15.711Z,100.00
2022-09-29T01:44:45.877Z,100.00
2022-09-29T01:47:36.637Z,100.00
2022-09-29T01:50:14.787Z,100.00
2022-09-29T01:52:46.860Z,100.00
2022-09-29T01:55:18.911Z,100.00
2022-09-29T01:57:56.901Z,100.00
2022-09-29T02:00:31.038Z,100.00
2022-09-29T02:03:19.429Z,100.00
2022-09-29T02:05:58.914Z,100.00
2022-09-29T02:08:50.208Z,100.00
2022-09-29T02:11:18.418Z,100.00
2022-09-29T02:14:13.935Z,100.00
2022-09-29T02:17:31.582Z,100.00
2022-09-29T02:19:58.945Z,100.00
2022-09-29T02:22:26.385Z,100.00
2022-09-29T02:24:58.609Z,100.00
2022-09-29T02:27:33.051Z,100.00
2022-09-29T02:30:00.387Z,100.00
2022-09-29T02:32:29.849Z,100.00
2022-09-29T02:34:57.573Z,100.00
2022-09-29T02:37:49.522Z,100.00
2022-09-29T02:40:35.615Z,100.00
2022-09-29T02:43:24.419Z,100.00
2022-09-29T02:46:10.397Z,100.00
2022-09-29T02:49:02.152Z,100.00
2022-09-29T02:51:37.548Z,100.00
2022-09-29T02:54:25.009Z,100.00
2022-09-29T02:57:26.024Z,100.00
2022-09-29T03:00:10.512Z,100.00
2022-09-29T03:02:41.958Z,100.00
2022-09-29T03:05:15.794Z,100.00
2022-09-29T03:07:43.618Z,100.00
2022-09-29T03:10:13.279Z,100.00
2022-09-29T03:12:40.766Z,100.00
2022-09-29T03:15:11.948Z,100.00
2022-09-29T03:17:40.577Z,100.00
2022-09-29T03:20:10.342Z,100.00
2022-09-29T03:22:37.968Z,100.00
2022-09-29T03:25:06.563Z,100.00
2022-09-29T03:27:36.367Z,100.00
2022-09-29T03:30:05.027Z,100.00
2022-09-29T03:32:33.102Z,100.00
2022-09-29T03:35:00.634Z,100.00
2022-09-29T03:37:28.472Z,100.00
2022-09-29T03:39:55.932Z,100.00
2022-09-29T03:42:23.896Z,100.00
2022-09-29T03:44:51.459Z,100.00
2022-09-29T03:47:18.910Z,100.00
2022-09-29T03:49:46.459Z,100.00
2022-09-29T03:52:13.933Z,100.00
2022-09-29T03:54:41.370Z,100.00
2022-09-29T03:57:08.888Z,100.00
2022-09-29T03:59:36.660Z,100.00
2022-09-29T04:02:04.332Z,100.00
2022-09-29T04:04:31.890Z,100.00
2022-09-29T04:07:00.328Z,100.00
2022-09-29T04:09:27.975Z,100.00
2022-09-29T04:11:58.946Z,100.00
2022-09-29T04:14:27.732Z,100.00
2022-09-29T04:16:57.902Z,100.00
2022-09-29T04:19:25.521Z,100.00
2022-09-29T04:21:53.417Z,100.00
2022-09-29T04:24:20.784Z,100.00
2022-09-29T04:26:48.055Z,100.00
2022-09-29T04:29:15.569Z,100.00
2022-09-29T04:31:42.916Z,100.00
2022-09-29T04:34:10.365Z,100.00
2022-09-29T04:36:37.871Z,100.00
2022-09-29T04:39:05.447Z,100.00
2022-09-29T04:41:35.530Z,100.00
2022-09-29T04:44:02.927Z,100.00
2022-09-29T04:46:30.087Z,100.00
2022-09-29T04:48:57.444Z,100.00
2022-09-29T04:51:24.873Z,100.00
2022-09-29T04:53:53.052Z,100.00
2022-09-29T04:56:20.474Z,100.00
2022-09-29T04:58:47.896Z,100.00
2022-09-29T05:01:15.865Z,100.00
2022-09-29T05:03:43.278Z,100.00
2022-09-29T05:06:10.884Z,100.00
2022-09-29T05:08:38.367Z,100.00
2022-09-29T05:11:07.809Z,100.00
2022-09-29T05:13:36.202Z,100.00
2022-09-29T05:16:04.496Z,100.00
2022-09-29T05:18:32.260Z,100.00
2022-09-29T05:23:55.915Z,100.00
2022-09-29T05:26:23.840Z,100.00
2022-09-29T05:28:51.284Z,100.00
2022-09-29T05:31:18.600Z,100.00
2022-09-29T05:33:46.027Z,100.00
2022-09-29T05:36:13.444Z,100.00
2022-09-29T05:38:40.809Z,100.00
2022-09-29T05:41:13.092Z,100.00
2022-09-29T05:43:40.429Z,100.00
2022-09-29T05:46:10.320Z,100.00
2022-09-29T05:48:37.968Z,100.00
2022-09-29T05:51:11.327Z,100.00
2022-09-29T05:53:39.273Z,100.00
2022-09-29T05:56:22.144Z,100.00
2022-09-29T05:58:50.401Z,100.00
2022-09-29T06:01:23.935Z,100.00
2022-09-29T06:03:54.682Z,100.00
2022-09-29T06:06:25.282Z,100.00
2022-09-29T06:08:53.230Z,100.00
2022-09-29T06:11:29.362Z,100.00
2022-09-29T06:13:56.653Z,100.00
2022-09-29T06:16:27.286Z,100.00
2022-09-29T06:18:55.071Z,100.00
2022-09-29T06:21:27.045Z,100.00
2022-09-29T06:23:55.853Z,100.00
2022-09-29T06:26:24.862Z,100.00
2022-09-29T06:28:53.725Z,100.00
2022-09-29T06:31:25.380Z,100.00
2022-09-29T06:33:55.864Z,100.00
2022-09-29T06:36:58.019Z,100.00
2022-09-29T06:39:26.202Z,100.00
2022-09-29T06:41:55.793Z,100.00
2022-09-29T06:44:27.585Z,100.00
2022-09-29T06:46:55.319Z,100.00
2022-09-29T06:49:23.703Z,100.00
2022-09-29T06:51:51.704Z,100.00
2022-09-29T06:54:21.949Z,100.00
2022-09-29T06:56:50.783Z,100.00
2022-09-29T06:59:18.357Z,100.00
2022-09-29T07:01:49.962Z,100.00
2022-09-29T07:04:20.331Z,100.00
2022-09-29T07:06:49.033Z,100.00
2022-09-29T07:09:16.994Z,100.00
2022-09-29T07:11:47.535Z,100.00
2022-09-29T07:14:22.386Z,100.00
2022-09-29T07:16:50.148Z,100.00
2022-09-29T07:19:18.984Z,100.00
2022-09-29T07:21:47.212Z,100.00
2022-09-29T07:24:15.469Z,100.00
2022-09-29T07:26:42.987Z,100.00
2022-09-29T07:29:15.347Z,100.00
2022-09-29T07:31:52.520Z,100.00
2022-09-29T07:34:21.981Z,100.00
2022-09-29T07:36:49.920Z,100.00
2022-09-29T07:39:20.435Z,100.00
2022-09-29T07:41:48.677Z,100.00
2022-09-29T07:44:16.214Z,100.00
2022-09-29T07:46:43.581Z,100.00
2022-09-29T07:49:11.029Z,100.00
2022-09-29T07:51:38.339Z,100.00
2022-09-29T07:54:06.003Z,100.00
2022-09-29T07:56:34.887Z,100.00
2022-09-29T07:59:02.830Z,100.00
2022-09-29T08:01:31.472Z,100.00
2022-09-29T08:03:59.340Z,100.00
2022-09-29T08:06:27.447Z,100.00
2022-09-29T08:09:03.638Z,100.00
2022-09-29T08:11:37.479Z,100.00
2022-09-29T08:14:05.319Z,100.00
2022-09-29T08:16:33.926Z,100.00
2022-09-29T08:19:02.347Z,100.00
2022-09-29T08:21:31.557Z,100.00
2022-09-29T08:24:00.042Z,100.00
2022-09-29T08:26:39.619Z,100.00
2022-09-29T08:29:16.032Z,100.00
2022-09-29T08:31:45.898Z,100.00
2022-09-29T08:34:14.113Z,100.00
2022-09-29T08:36:41.780Z,100.00
2022-09-29T08:39:11.235Z,100.00
2022-09-29T08:41:56.243Z,100.00
2022-09-29T08:44:38.959Z,100.00
2022-09-29T08:47:47.834Z,100.00
2022-09-29T08:50:32.820Z,100.00
2022-09-29T08:53:08.193Z,100.00
2022-09-29T08:55:57.866Z,100.00
2022-09-29T08:58:25.836Z,100.00
2022-09-29T09:01:26.995Z,100.00
2022-09-29T09:03:57.253Z,100.00
2022-09-29T09:06:55.359Z,100.00
2022-09-29T09:09:47.576Z,100.00
2022-09-29T09:12:43.818Z,100.00
2022-09-29T09:15:48.134Z,100.00
2022-09-29T09:18:41.744Z,100.00
2022-09-29T09:21:26.439Z,100.00
2022-09-29T09:24:07.942Z,100.00
2022-09-29T09:26:44.941Z,100.00
2022-09-29T09:29:39.771Z,100.00
2022-09-29T09:32:19.228Z,100.00
2022-09-29T09:34:55.603Z,99.91
2022-09-29T09:37:34.347Z,100.00
2022-09-29T09:40:20.381Z,100.00
2022-09-29T09:42:58.380Z,100.00
2022-09-29T09:45:33.146Z,98.96
2022-09-29T09:48:14.103Z,97.94
2022-09-29T09:50:43.048Z,96.44
2022-09-29T09:53:35.365Z,95.92
2022-09-29T09:56:38.289Z,92.62
2022-09-29T09:59:46.036Z,91.46
2022-09-29T10:02:21.766Z,91.46
2022-09-29T10:04:54.056Z,90.82
2022-09-29T10:07:25.235Z,88.68
2022-09-29T10:09:52.888Z,86.71
2022-09-29T10:12:23.016Z,86.38
2022-09-29T10:14:59.889Z,85.65
2022-09-29T10:17:39.112Z,85.24
2022-09-29T10:20:08.692Z,84.63
2022-09-29T10:22:39.132Z,84.56
2022-09-29T10:25:12.322Z,83.17
2022-09-29T10:27:43.283Z,83.26
2022-09-29T10:30:44.396Z,80.93
2022-09-29T10:33:23.251Z,80.44
2022-09-29T10:36:04.687Z,81.09
2022-09-29T10:38:32.373Z,80.95
2022-09-29T10:41:05.811Z,80.47
2022-09-29T10:43:42.630Z,80.87
2022-09-29T10:46:37.698Z,82.09
2022-09-29T10:49:19.190Z,82.81
2022-09-29T10:52:00.276Z,83.56
2022-09-29T10:54:32.056Z,82.90
2022-09-29T10:57:00.221Z,82.35
2022-09-29T10:59:28.181Z,83.40
2022-09-29T11:02:00.251Z,83.54
2022-09-29T11:04:35.985Z,83.23
2022-09-29T11:07:11.928Z,84.25
2022-09-29T11:09:42.004Z,84.31
2022-09-29T11:12:38.572Z,83.59
2022-09-29T11:15:40.041Z,83.05
2022-09-29T11:18:37.439Z,84.92
2022-09-29T11:21:19.950Z,81.78
2022-09-29T11:23:58.627Z,82.18
2022-09-29T11:26:43.278Z,81.59
2022-09-29T11:29:35.925Z,82.71
2022-09-29T11:33:04.824Z,80.05
2022-09-29T11:35:50.121Z,78.89
2022-09-29T11:39:01.752Z,79.11
2022-09-29T11:41:56.464Z,77.89
2022-09-29T11:44:37.685Z,77.55
2022-09-29T11:47:28.184Z,77.69
2022-09-29T11:50:20.667Z,77.96
2022-09-29T11:53:23.082Z,76.75
2022-09-29T11:56:12.973Z,75.97
2022-09-29T11:59:36.581Z,77.36
2022-09-29T12:02:31.329Z,76.80
2022-09-29T12:05:13.584Z,76.33
2022-09-29T12:08:22.545Z,74.85
2022-09-29T12:11:23.788Z,73.90
2022-09-29T12:14:12.080Z,75.09
2022-09-29T12:16:45.414Z,74.97
2022-09-29T12:19:20.189Z,74.51
2022-09-29T12:21:51.050Z,74.65
2022-09-29T12:24:36.245Z,75.54
2022-09-29T12:27:34.710Z,76.01
2022-09-29T12:30:19.848Z,77.16
2022-09-29T12:33:02.829Z,76.61
2022-09-29T12:36:03.617Z,76.56
2022-09-29T12:38:39.702Z,76.96
2022-09-29T12:41:21.666Z,75.51
2022-09-29T12:43:59.389Z,76.54
2022-09-29T12:47:27.285Z,76.26
2022-09-29T12:50:14.174Z,76.21
2022-09-29T12:53:09.152Z,77.12
2022-09-29T12:56:01.730Z,77.41
2022-09-29T12:58:45.365Z,77.10
2022-09-29T13:01:31.428Z,76.65
2022-09-29T13:04:35.838Z,76.29
2022-09-29T13:07:21.630Z,76.66
2022-09-29T13:10:04.273Z,76.75
2022-09-29T13:13:20.035Z,76.28
2022-09-29T13:16:13.536Z,76.21
2022-09-29T13:19:20.953Z,75.25
2022-09-29T13:22:41.305Z,74.50
2022-09-29T13:26:06.753Z,74.64
2022-09-29T13:28:44.499Z,74.26
2022-09-29T13:31:32.514Z,75.24
2022-09-29T13:34:02.632Z,75.46
2022-09-29T13:36:38.949Z,74.41
2022-09-29T13:39:23.333Z,73.25
2022-09-29T13:41:55.405Z,71.96
2022-09-29T13:44:28.138Z,70.95
2022-09-29T13:46:56.820Z,69.48
2022-09-29T13:49:29.981Z,69.00
2022-09-29T13:52:39.847Z,68.47
2022-09-29T13:56:02.278Z,67.95
2022-09-29T13:58:34.699Z,67.61
2022-09-29T14:01:06.027Z,67.22
2022-09-29T14:03:34.817Z,66.94
2022-09-29T14:09:16.753Z,67.85
2022-09-29T14:11:50.331Z,67.92
2022-09-29T14:14:33.438Z,67.93
2022-09-29T14:17:01.189Z,67.52
2022-09-29T14:20:04.198Z,67.53
2022-09-29T14:22:32.219Z,67.85
2022-09-29T14:25:12.382Z,67.99
2022-09-29T14:27:51.492Z,68.15
2022-09-29T14:30:50.718Z,68.31
2022-09-29T14:33:45.682Z,68.34
2022-09-29T14:36:32.752Z,68.29
2022-09-29T14:40:16.625Z,68.80
2022-09-29T14:43:22.306Z,69.17
2022-09-29T14:47:19.023Z,69.42
2022-09-29T14:50:55.277Z,69.43
2022-09-29T14:54:03.466Z,69.41
2022-09-29T14:56:37.231Z,69.75
2022-09-29T14:59:40.025Z,69.98
2022-09-29T15:02:22.584Z,70.00
2022-09-29T15:04:50.244Z,70.58
2022-09-29T15:07:24.032Z,71.26
2022-09-29T15:09:57.922Z,71.47
2022-09-29T15:12:28.800Z,72.16
2022-09-29T15:14:57.615Z,72.70
2022-09-29T15:17:53.899Z,74.00
2022-09-29T15:20:50.871Z,74.59
2022-09-29T15:23:57.166Z,76.01
2022-09-29T15:26:26.701Z,76.85
2022-09-29T15:28:54.216Z,77.61
2022-09-29T15:31:29.076Z,78.94
2022-09-29T15:33:56.883Z,80.17
2022-09-29T15:36:28.555Z,80.74
2022-09-29T15:39:04.744Z,81.67
2022-09-29T15:41:34.204Z,82.91
2022-09-29T15:44:21.770Z,84.62
2022-09-29T15:46:52.075Z,85.27
2022-09-29T15:49:22.731Z,86.31
2022-09-29T15:52:06.102Z,87.20
2022-09-29T15:54:44.283Z,88.09
2022-09-29T15:57:50.762Z,89.03
2022-09-29T16:00:21.193Z,90.19
2022-09-29T16:02:54.371Z,91.63
2022-09-29T16:05:24.024Z,93.07
2022-09-29T16:08:02.780Z,94.38
2022-09-29T16:10:34.207Z,94.47
2022-09-29T16:13:11.532Z,95.10
2022-09-29T16:15:46.261Z,95.49
2022-09-29T16:18:25.272Z,95.94
2022-09-29T16:21:00.068Z,97.22
2022-09-29T16:23:29.784Z,98.80
2022-09-29T16:26:06.531Z,99.67
2022-09-29T16:28:36.519Z,100.00
2022-09-29T16:31:07.225Z,100.00
2022-09-29T16:33:36.025Z,100.00
2022-09-29T16:36:17.378Z,100.00
2022-09-29T16:38:46.280Z,100.00
2022-09-29T16:41:37.408Z,100.00
2022-09-29T16:44:19.819Z,100.00
2022-09-29T16:47:15.098Z,100.00
2022-09-29T16:49:57.792Z,100.00
2022-09-29T16:52:40.926Z,100.00
2022-09-29T16:55:29.065Z,100.00
2022-09-29T16:58:12.647Z,100.00
2022-09-29T17:00:40.770Z,100.00
2022-09-29T17:03:09.838Z,100.00
2022-09-29T17:05:43.174Z,100.00
2022-09-29T17:08:21.624Z,100.00
2022-09-29T17:10:56.277Z,100.00
2022-09-29T17:13:24.421Z,100.00
2022-09-29T17:15:53.485Z,100.00
2022-09-29T17:18:22.667Z,100.00
2022-09-29T17:20:50.470Z,100.00
2022-09-29T17:23:18.374Z,100.00
2022-09-29T17:25:47.916Z,100.00
2022-09-29T17:28:24.309Z,100.00
2022-09-29T17:30:54.924Z,100.00
2022-09-29T17:33:23.303Z,100.00
2022-09-29T17:35:55.185Z,100.00
2022-09-29T17:38:23.586Z,100.00
2022-09-29T17:41:06.338Z,100.00
2022-09-29T17:43:33.770Z,100.00
2022-09-29T17:46:01.653Z,100.00
2022-09-29T17:48:30.372Z,100.00
2022-09-29T17:50:58.989Z,100.00
2022-09-29T17:53:27.797Z,100.00
2022-09-29T17:55:57.259Z,100.00
2022-09-29T17:58:24.810Z,100.00
2022-09-29T18:00:53.806Z,100.00
2022-09-29T18:03:21.960Z,99.95
2022-09-29T18:05:55.706Z,99.97
2022-09-29T18:08:26.055Z,100.00
2022-09-29T18:10:55.792Z,100.00
2022-09-29T18:13:26.935Z,100.00
2022-09-29T18:16:01.103Z,100.00
2022-09-29T18:18:29.094Z,100.00
2022-09-29T18:20:56.425Z,100.00
2022-09-29T18:23:24.315Z,100.00
2022-09-29T18:25:52.346Z,100.00
2022-09-29T18:28:20.280Z,100.00
2022-09-29T18:31:11.559Z,100.00
2022-09-29T18:33:41.167Z,100.00
2022-09-29T18:36:10.091Z,100.00
2022-09-29T18:38:37.401Z,100.00
2022-09-29T18:41:09.368Z,100.00
2022-09-29T18:43:38.004Z,100.00
2022-09-29T18:46:05.680Z,100.00
2022-09-29T18:48:33.177Z,100.00
2022-09-29T18:51:00.538Z,100.00
2022-09-29T18:53:27.983Z,100.00
2022-09-29T18:56:02.745Z,100.00
2022-09-29T18:58:30.791Z,100.00
2022-09-29T19:00:58.488Z,100.00
2022-09-29T19:03:27.445Z,100.00
2022-09-29T19:05:55.691Z,100.00
2022-09-29T19:08:24.146Z,100.00
2022-09-29T19:10:55.339Z,100.00
2022-09-29T19:13:22.772Z,100.00
2022-09-29T19:15:50.642Z,100.00
2022-09-29T19:18:22.989Z,100.00
2022-09-29T19:20:54.745Z,100.00
2022-09-29T19:23:24.926Z,100.00
2022-09-29T19:25:54.265Z,100.00
2022-09-29T19:28:23.448Z,100.00
2022-09-29T19:30:51.808Z,100.00
2022-09-29T19:33:21.701Z,100.00
2022-09-29T19:35:54.137Z,100.00
2022-09-29T19:38:22.554Z,100.00
2022-09-29T19:40:51.246Z,100.00
2022-09-29T19:43:21.135Z,100.00
2022-09-29T19:45:49.618Z,100.00
2022-09-29T19:48:20.532Z,100.00
2022-09-29T19:51:14.431Z,100.00
2022-09-29T19:53:44.596Z,100.00
2022-09-29T19:56:16.233Z,100.00
2022-09-29T19:58:43.751Z,100.00
2022-09-29T20:01:12.570Z,100.00
2022-09-29T20:03:41.510Z,100.00
2022-09-29T20:06:10.025Z,100.00
2022-09-29T20:08:37.429Z,100.00
2022-09-29T20:11:10.725Z,100.00
2022-09-29T20:13:38.768Z,100.00
2022-09-29T20:16:07.287Z,100.00
2022-09-29T20:18:36.980Z,100.00
2022-09-29T20:21:14.908Z,100.00
2022-09-29T20:23:42.453Z,100.00
2022-09-29T20:26:09.900Z,100.00
2022-09-29T20:28:37.874Z,100.00
2022-09-29T20:31:07.160Z,100.00
2022-09-29T20:33:36.267Z,100.00
2022-09-29T20:36:05.828Z,100.00
2022-09-29T20:38:39.298Z,100.00
2022-09-29T20:41:07.329Z,100.00
2022-09-29T20:43:35.735Z,100.00
2022-09-29T20:46:07.258Z,100.00
2022-09-29T20:48:37.165Z,100.00
2022-09-29T20:51:15.693Z,100.00
2022-09-29T20:53:49.754Z,100.00
2022-09-29T20:56:17.437Z,100.00
2022-09-29T20:58:50.157Z,100.00
2022-09-29T21:01:22.016Z,100.00
2022-09-29T21:04:02.557Z,100.00
2022-09-29T21:06:33.481Z,100.00
2022-09-29T21:09:04.084Z,100.00
2022-09-29T21:11:37.670Z,100.00
2022-09-29T21:14:16.278Z,100.00
2022-09-29T21:16:50.650Z,100.00
2022-09-29T21:19:26.392Z,100.00
2022-09-29T21:21:55.500Z,100.00
2022-09-29T21:24:23.523Z,100.00
2022-09-29T21:26:51.583Z,100.00
2022-09-29T21:29:20.092Z,100.00
2022-09-29T21:31:48.057Z,100.00
2022-09-29T21:34:16.331Z,100.00
2022-09-29T21:36:44.710Z,100.00
2022-09-29T21:39:14.125Z,100.00
2022-09-29T21:41:53.991Z,100.00
2022-09-29T21:44:23.986Z,100.00
2022-09-29T21:46:52.308Z,100.00
2022-09-29T21:49:20.690Z,100.00
2022-09-29T21:51:49.992Z,100.00
2022-09-29T21:54:21.249Z,100.00
2022-09-29T21:56:50.057Z,100.00
2022-09-29T21:59:20.717Z,100.00
2022-09-29T22:01:48.709Z,100.00
2022-09-29T22:04:16.939Z,100.00
2022-09-29T22:06:45.538Z,100.00
2022-09-29T22:09:20.856Z,100.00
2022-09-29T22:11:49.507Z,100.00
2022-09-29T22:14:18.429Z,100.00
2022-09-29T22:16:46.475Z,100.00
2022-09-29T22:19:23.419Z,100.00
2022-09-29T22:22:01.385Z,100.00
2022-09-29T22:24:30.001Z,100.00
2022-09-29T22:26:57.908Z,100.00
2022-09-29T22:29:26.799Z,100.00
2022-09-29T22:31:54.692Z,100.00
2022-09-29T22:34:22.621Z,100.00
2022-09-29T22:36:51.087Z,100.00
2022-09-29T22:39:19.264Z,100.00
2022-09-29T22:41:47.672Z,100.00
2022-09-29T22:44:15.452Z,100.00
2022-09-29T22:46:45.013Z,100.00
2022-09-29T22:49:13.099Z,100.00
2022-09-29T22:51:41.365Z,100.00
2022-09-29T22:54:09.447Z,100.00
2022-09-29T22:56:37.306Z,100.00
2022-09-29T22:59:05.670Z,100.00
2022-09-29T23:01:34.333Z,100.00
2022-09-29T23:04:03.811Z,100.00
2022-09-29T23:06:33.856Z,100.00
2022-09-29T23:09:01.810Z,100.00
2022-09-29T23:11:30.956Z,100.00
2022-09-29T23:14:00.533Z,100.00
2022-09-29T23:16:29.023Z,100.00
2022-09-29T23:18:58.172Z,100.00
2022-09-29T23:21:26.481Z,100.00
2022-09-29T23:23:57.926Z,100.00
2022-09-29T23:26:27.898Z,100.00
2022-09-29T23:28:56.150Z,100.00
2022-09-29T23:31:24.146Z,100.00
2022-09-29T23:33:58.359Z,100.00
2022-09-29T23:36:28.736Z,100.00
2022-09-29T23:39:13.323Z,100.00
2022-09-29T23:41:47.232Z,100.00
2022-09-29T23:44:23.997Z,100.00
2022-09-29T23:46:53.708Z,100.00
2022-09-29T23:49:28.407Z,100.00
2022-09-29T23:52:00.168Z,100.00
2022-09-29T23:54:29.150Z,100.00
2022-09-29T23:56:57.902Z,100.00
2022-09-29T23:59:25.877Z,100.00
